Time;durP1;ratioP1;P1;durP2;ratioP2;P2;SDS_P1;SDS_P2;PMS_P1;PMS_P2;Temp;Humidity;BMP_temperature;BMP_pressure;BME280_temperature;BME280_humidity;BME280_pressure;Samples;Min_cycle;Max_cycle;Signal;HPM_P1;HPM_P2
2023/01/03 00:01:42;;;;;;;;;;;;;;;9.67;52.08;99825.59;5020981;28;19916;-77
2023/01/03 00:04:07;;;;;;;;;;;;;;;9.67;52.16;99822.16;5037478;28;19923;-80
2023/01/03 00:06:33;;;;;;;;;;;;;;;9.65;52.14;99835.25;5055138;28;20032;-78
2023/01/03 00:08:59;;;;;;;;;;;;;;;9.62;52.14;99822.41;5020624;28;19917;-77
2023/01/03 00:14:10;;;;;;;;;;;;;;;9.58;52.31;99836.50;5040241;28;20008;-76
2023/01/03 00:16:35;;;;;;;;;;;;;;;9.56;52.08;99834.00;5020551;28;19968;-77
2023/01/03 00:19:04;;;;;;;;;;;;;;;9.54;52.12;99835.03;5036981;28;20354;-77
2023/01/03 00:21:29;;;;;;;;;;;;;;;9.53;52.19;99838.53;5020594;28;20023;-77
2023/01/03 00:23:55;;;;;;;;;;;;;;;9.49;52.23;99837.88;5020199;28;20024;-78
2023/01/03 00:26:20;;;;;;;;;;;;;;;9.46;52.07;99832.00;5036640;28;19917;-77
2023/01/03 00:28:45;;;;;;;;;;;;;;;9.45;52.32;99833.75;5036588;28;19920;-77
2023/01/03 00:31:11;;;;;;;;;;;;;;;9.45;52.27;99835.50;5055130;28;19917;-77
2023/01/03 00:33:36;;;;;;;;;;;;;;;9.44;52.22;99836.44;5037348;28;20395;-76
2023/01/03 00:36:02;;;;;;;;;;;;;;;9.43;52.27;99833.00;5036978;28;19967;-76
2023/01/03 00:38:27;;;;;;;;;;;;;;;9.42;52.63;99831.28;5019988;28;20315;-76
2023/01/03 00:40:53;;;;;;;;;;;;;;;9.42;52.62;99839.13;5019924;28;20007;-76
2023/01/03 00:43:27;;;;;;;;;;;;;;;9.41;52.63;99829.63;5054903;28;20084;-77
2023/01/03 00:45:52;;;;;;;;;;;;;;;9.40;52.78;99833.16;5021159;28;19921;-76
2023/01/03 00:48:18;;;;;;;;;;;;;;;9.38;52.86;99825.41;5036054;28;19924;-77
2023/01/03 00:50:43;;;;;;;;;;;;;;;9.37;52.74;99821.13;5036547;28;19920;-77
2023/01/03 00:53:08;;;;;;;;;;;;;;;9.37;52.74;99813.28;5036638;28;20011;-78
2023/01/03 00:55:34;;;;;;;;;;;;;;;9.36;52.78;99818.59;5037242;28;19917;-80
2023/01/03 00:57:59;;;;;;;;;;;;;;;9.36;52.69;99814.25;5036460;28;19924;-79
2023/01/03 01:00:25;;;;;;;;;;;;;;;9.36;52.82;99809.03;5019838;28;20399;-79
2023/01/03 01:02:52;;;;;;;;;;;;;;;9.35;52.68;99809.94;5019801;28;19917;-76
2023/01/03 01:05:17;;;;;;;;;;;;;;;9.32;52.89;99812.72;5036474;28;19916;-77
2023/01/03 01:07:42;;;;;;;;;;;;;;;9.32;52.84;99809.28;5054920;28;19917;-78
2023/01/03 01:10:08;;;;;;;;;;;;;;;9.29;52.77;99807.66;5035960;28;19917;-77
2023/01/03 01:12:33;;;;;;;;;;;;;;;9.28;52.80;99800.75;5036260;28;19924;-77
2023/01/03 01:14:58;;;;;;;;;;;;;;;9.27;53.13;99799.09;5035688;28;19924;-77
2023/01/03 01:17:26;;;;;;;;;;;;;;;9.27;52.93;99803.47;5019332;28;19923;-77
2023/01/03 01:19:51;;;;;;;;;;;;;;;9.24;52.72;99794.88;5053717;28;19932;-77
2023/01/03 01:22:17;;;;;;;;;;;;;;;9.22;52.96;99791.53;5036375;28;20482;-77
2023/01/03 01:24:42;;;;;;;;;;;;;;;9.22;53.07;99794.13;5019378;28;19924;-77
2023/01/03 01:27:07;;;;;;;;;;;;;;;9.21;53.27;99787.22;5018933;28;19917;-76
2023/01/03 01:29:33;;;;;;;;;;;;;;;9.21;52.98;99789.84;5053719;28;20350;-77
2023/01/03 01:31:58;;;;;;;;;;;;;;;9.19;52.75;99785.66;5053898;28;19924;-76
2023/01/03 01:34:23;;;;;;;;;;;;;;;9.16;52.90;99781.44;5019056;28;20362;-79
2023/01/03 01:36:48;;;;;;;;;;;;;;;9.15;52.83;99781.50;5036239;28;20358;-78
2023/01/03 01:39:15;;;;;;;;;;;;;;;9.12;53.24;99777.31;5035182;28;20453;-78
2023/01/03 01:44:39;;;;;;;;;;;;;;;9.07;53.30;99779.31;5038507;28;20395;-77
2023/01/03 01:47:06;;;;;;;;;;;;;;;9.06;53.21;99777.63;5053683;28;20004;-77
2023/01/03 01:49:32;;;;;;;;;;;;;;;9.04;52.99;99779.47;5035953;28;20360;-78
2023/01/03 01:51:57;;;;;;;;;;;;;;;9.02;53.30;99776.13;5019029;28;19924;-78
2023/01/03 01:54:23;;;;;;;;;;;;;;;9.01;53.07;99775.28;5053237;28;19955;-78
2023/01/03 01:56:49;;;;;;;;;;;;;;;9.00;53.33;99778.81;5018946;28;20004;-78
2023/01/03 01:59:14;;;;;;;;;;;;;;;9.01;53.37;99766.63;5018802;28;19917;-77
2023/01/03 02:01:40;;;;;;;;;;;;;;;8.98;53.30;99772.00;5018484;28;19924;-76
2023/01/03 02:04:09;;;;;;;;;;;;;;;8.97;53.47;99765.13;5035447;28;19917;-77
2023/01/03 02:06:35;;;;;;;;;;;;;;;8.95;53.21;99760.00;5035633;28;19916;-77
2023/01/03 02:09:00;;;;;;;;;;;;;;;8.94;53.41;99762.69;5035260;28;19924;-78
2023/01/03 02:11:35;;;;;;;;;;;;;;;8.94;53.54;99765.28;5018698;28;19921;-78
2023/01/03 02:14:19;;;;;;;;;;;;;;;8.95;53.69;99766.94;5035405;28;19940;-77
2023/01/03 02:16:57;;;;;;;;;;;;;;;8.91;53.75;99758.47;5053310;28;19923;-78
2023/01/03 02:19:22;;;;;;;;;;;;;;;8.91;53.76;99757.63;5052793;28;19917;-76
2023/01/03 02:21:50;;;;;;;;;;;;;;;8.88;53.73;99756.84;5052639;28;20295;-77
2023/01/03 02:24:18;;;;;;;;;;;;;;;8.88;53.44;99756.03;5052855;28;19923;-76
2023/01/03 02:26:56;;;;;;;;;;;;;;;8.88;53.50;99762.06;5052785;28;20057;-76
2023/01/03 02:29:38;;;;;;;;;;;;;;;8.87;53.60;99754.31;5035095;28;19916;-76
2023/01/03 02:32:10;;;;;;;;;;;;;;;8.87;53.87;99757.78;5035340;28;19917;-76
2023/01/03 02:34:39;;;;;;;;;;;;;;;8.85;53.81;99757.00;5052847;28;19920;-77
2023/01/03 02:37:23;;;;;;;;;;;;;;;8.84;53.74;99760.56;5035110;28;19940;-77
2023/01/03 02:39:51;;;;;;;;;;;;;;;8.86;54.05;99761.31;5034420;28;19925;-76
2023/01/03 02:45:08;;;;;;;;;;;;;;;8.84;53.83;99759.72;5037733;28;20055;-77
2023/01/03 02:47:45;;;;;;;;;;;;;;;8.83;54.24;99747.63;5034481;28;19917;-76
2023/01/03 02:50:11;;;;;;;;;;;;;;;8.81;53.90;99755.50;5034988;28;19917;-77
2023/01/03 02:52:36;;;;;;;;;;;;;;;8.81;54.36;99754.69;5018282;28;19921;-77
2023/01/03 02:55:02;;;;;;;;;;;;;;;8.82;54.33;99757.19;5034697;28;19917;-77
2023/01/03 02:57:34;;;;;;;;;;;;;;;8.80;54.15;99748.59;5034555;28;20391;-78
2023/01/03 03:00:00;;;;;;;;;;;;;;;8.81;53.83;99752.06;5034946;28;20310;-77
2023/01/03 03:02:28;;;;;;;;;;;;;;;8.80;54.26;99751.22;5018289;28;20372;-78
2023/01/03 03:04:54;;;;;;;;;;;;;;;8.79;54.27;99756.50;5034669;28;20019;-77
2023/01/03 03:07:27;;;;;;;;;;;;;;;8.78;54.05;99752.22;5017658;28;20299;-76
2023/01/03 03:15:22;;;;;;;;;;;;;;;8.75;54.21;99745.41;5037069;28;20494;-76
2023/01/03 03:17:48;;;;;;;;;;;;;;;8.75;54.01;99748.03;5017762;28;19917;-75
2023/01/03 03:25:53;;;;;;;;;;;;;;;8.72;54.33;99748.19;5018097;28;19986;-77
2023/01/03 03:28:35;;;;;;;;;;;;;;;8.72;54.18;99752.56;5014208;28;20010;-77
2023/01/03 03:31:12;;;;;;;;;;;;;;;8.72;54.32;99753.38;5016177;28;20304;-75
2023/01/03 03:33:43;;;;;;;;;;;;;;;8.72;53.97;99748.19;5032337;28;19924;-77
2023/01/03 03:36:17;;;;;;;;;;;;;;;8.71;54.01;99745.66;5017709;28;19924;-78
2023/01/03 03:38:43;;;;;;;;;;;;;;;8.69;54.05;99756.16;5034260;28;19932;-78
2023/01/03 03:47:24;;;;;;;;;;;;;;;8.68;54.06;99742.31;5021011;28;19924;-76
2023/01/03 03:49:50;;;;;;;;;;;;;;;8.68;53.80;99750.13;5018028;28;19957;-77
2023/01/03 03:52:15;;;;;;;;;;;;;;;8.66;54.13;99746.72;5018331;28;19917;-77
2023/01/03 03:54:43;;;;;;;;;;;;;;;8.66;54.06;99743.28;5018193;28;20277;-76
2023/01/03 03:57:27;;;;;;;;;;;;;;;8.67;54.42;99742.38;5017878;28;19971;-77
2023/01/03 03:59:54;;;;;;;;;;;;;;;8.65;53.86;99744.19;5035641;28;20293;-77
2023/01/03 04:02:19;;;;;;;;;;;;;;;8.63;54.03;99739.09;5017757;28;19918;-76
2023/01/03 04:04:46;;;;;;;;;;;;;;;8.63;54.15;99746.91;5001543;28;19975;-77
2023/01/03 04:07:11;;;;;;;;;;;;;;;8.62;53.90;99736.59;5017718;28;19924;-76
2023/01/03 04:09:36;;;;;;;;;;;;;;;8.61;54.49;99743.53;5017348;28;19922;-77
2023/01/03 04:12:02;;;;;;;;;;;;;;;8.60;54.01;99743.59;5017822;28;19967;-77
2023/01/03 04:14:27;;;;;;;;;;;;;;;8.59;54.29;99740.16;5016774;28;20012;-78
2023/01/03 04:16:52;;;;;;;;;;;;;;;8.59;53.95;99739.34;5033277;28;19924;-78
2023/01/03 04:19:18;;;;;;;;;;;;;;;8.58;54.14;99735.88;5017372;28;19974;-78
2023/01/03 04:21:43;;;;;;;;;;;;;;;8.58;54.38;99742.84;5017566;28;19917;-77
2023/01/03 04:24:08;;;;;;;;;;;;;;;8.56;54.24;99735.13;5001315;28;19918;-78
2023/01/03 04:26:33;;;;;;;;;;;;;;;8.56;54.44;99747.31;5016569;28;20343;-78
2023/01/03 04:28:59;;;;;;;;;;;;;;;8.54;54.45;99741.31;5034665;28;19917;-77
2023/01/03 04:31:24;;;;;;;;;;;;;;;8.54;53.82;99750.00;5017130;28;20011;-78
2023/01/03 04:33:49;;;;;;;;;;;;;;;8.51;54.14;99743.16;5035599;28;19924;-78
2023/01/03 04:36:17;;;;;;;;;;;;;;;8.50;53.99;99741.47;5017079;28;19917;-82
2023/01/03 04:38:42;;;;;;;;;;;;;;;8.49;54.32;99742.41;5016989;28;20011;-78
2023/01/03 04:41:08;;;;;;;;;;;;;;;8.47;54.10;99748.59;5017024;28;19948;-80
2023/01/03 04:46:17;;;;;;;;;;;;;;;8.44;54.13;99743.56;5019489;28;20009;-80
2023/01/03 04:48:42;;;;;;;;;;;;;;;8.43;54.70;99744.44;5016997;28;19968;-80
2023/01/03 04:51:07;;;;;;;;;;;;;;;8.56;59.04;99748.13;5016924;28;19971;-77
2023/01/03 04:53:33;;;;;;;;;;;;;;;8.64;62.63;99751.19;5016902;28;19917;-78
2023/01/03 04:55:58;;;;;;;;;;;;;;;8.76;66.00;99759.25;5034465;28;19991;-75
2023/01/03 04:58:23;;;;;;;;;;;;;;;8.98;65.33;99772.00;5035028;28;20308;-77
2023/01/03 05:00:49;;;;;;;;;;;;;;;8.93;62.42;99771.41;5032619;28;19917;-75
2023/01/03 05:03:14;;;;;;;;;;;;;;;8.81;60.97;99768.53;5015843;28;20008;-75
2023/01/03 05:05:39;;;;;;;;;;;;;;;8.76;63.38;99770.53;5033054;28;19966;-80
2023/01/03 05:08:05;;;;;;;;;;;;;;;8.94;65.78;99775.69;5016773;28;20400;-77
2023/01/03 05:10:31;;;;;;;;;;;;;;;8.88;62.64;99787.25;5016340;28;19917;-71
2023/01/03 05:12:59;;;;;;;;;;;;;;;8.80;61.99;99779.84;5032102;28;19921;-78
2023/01/03 05:15:25;;;;;;;;;;;;;;;8.75;60.89;99779.25;5016972;28;20388;-77
2023/01/03 05:17:51;;;;;;;;;;;;;;;8.70;60.53;99776.06;5015614;28;19921;-77
2023/01/03 05:25:50;;;;;;;;;;;;;;;8.54;59.18;99773.41;5033983;28;20071;-76
2023/01/03 05:28:15;;;;;;;;;;;;;;;8.50;58.76;99764.91;5017335;28;19924;-77
2023/01/03 05:30:41;;;;;;;;;;;;;;;8.48;58.49;99771.94;5016440;28;19917;-76
2023/01/03 05:33:06;;;;;;;;;;;;;;;8.46;58.02;99772.94;5016133;28;19921;-77
2023/01/03 05:35:31;;;;;;;;;;;;;;;8.42;57.83;99777.44;5015856;28;20394;-76
2023/01/03 05:37:56;;;;;;;;;;;;;;;8.42;58.03;99771.41;5033473;28;19917;-75
2023/01/03 05:40:22;;;;;;;;;;;;;;;8.39;57.46;99782.78;5015727;28;19931;-76
2023/01/03 05:42:47;;;;;;;;;;;;;;;8.39;57.39;99779.34;5033400;28;19918;-76
2023/01/03 05:45:12;;;;;;;;;;;;;;;8.37;57.30;99776.84;5016130;28;19950;-75
2023/01/03 05:47:38;;;;;;;;;;;;;;;8.36;56.89;99782.09;5025519;28;20022;-75
2023/01/03 05:50:03;;;;;;;;;;;;;;;8.35;56.69;99786.47;5060645;28;19916;-77
2023/01/03 05:52:28;;;;;;;;;;;;;;;8.36;56.99;99782.94;5023513;28;20019;-76
2023/01/03 05:54:54;;;;;;;;;;;;;;;8.36;56.51;99784.72;5035262;28;19967;-74
2023/01/03 05:57:19;;;;;;;;;;;;;;;8.42;56.19;99779.19;5018453;28;20382;-75
2023/01/03 05:59:44;;;;;;;;;;;;;;;8.61;56.06;99776.53;5035006;28;19924;-75
2023/01/03 06:02:10;;;;;;;;;;;;;;;8.83;55.46;99786.66;5053184;28;19921;-76
2023/01/03 06:04:35;;;;;;;;;;;;;;;9.08;55.13;99780.16;5035289;28;19916;-77
2023/01/03 06:07:00;;;;;;;;;;;;;;;9.34;54.94;99792.63;5035173;28;19924;-76
2023/01/03 06:09:25;;;;;;;;;;;;;;;9.68;54.25;99780.34;5018172;28;20358;-75
2023/01/03 06:11:51;;;;;;;;;;;;;;;10.06;53.62;99779.94;5035185;28;19917;-75
2023/01/03 06:14:18;;;;;;;;;;;;;;;10.48;52.56;99793.22;5035136;28;19928;-76
2023/01/03 06:19:27;;;;;;;;;;;;;;;11.74;49.73;99793.31;5037622;28;20023;-77
2023/01/03 06:21:52;;;;;;;;;;;;;;;12.47;48.20;99791.22;5018502;28;19963;-77
2023/01/03 06:24:17;;;;;;;;;;;;;;;13.30;46.39;99795.13;5034716;28;20402;-76
2023/01/03 06:26:43;;;;;;;;;;;;;;;14.20;44.27;99792.16;5017970;28;19917;-79
2023/01/03 06:29:08;;;;;;;;;;;;;;;14.99;41.61;99801.06;5053130;28;19916;-79
2023/01/03 06:31:33;;;;;;;;;;;;;;;15.71;39.54;99788.41;5035228;28;19979;-79
2023/01/03 06:33:59;;;;;;;;;;;;;;;16.38;37.79;99787.31;5035174;28;20439;-79
2023/01/03 06:36:27;;;;;;;;;;;;;;;16.94;36.72;99787.94;5018423;28;19916;-78
2023/01/03 06:38:52;;;;;;;;;;;;;;;17.36;36.00;99788.63;5018270;28;20392;-79
2023/01/03 06:41:18;;;;;;;;;;;;;;;17.67;35.57;99780.63;5034710;28;19923;-79
2023/01/03 06:43:43;;;;;;;;;;;;;;;18.31;42.47;99790.78;5043202;28;19924;-76
2023/01/03 06:54:35;;;;;;;;;;;;;;;19.10;40.77;99784.31;4958364;28;19924;-82
2023/01/03 06:57:00;;;;;;;;;;;;;;;19.15;38.91;99790.03;4955962;28;20395;-80
2023/01/03 06:59:25;;;;;;;;;;;;;;;19.19;37.09;99785.28;4971668;28;20332;-80
2023/01/03 07:01:51;;;;;;;;;;;;;;;19.25;36.01;99782.88;4955757;28;19922;-80
2023/01/03 07:04:16;;;;;;;;;;;;;;;19.34;35.08;99783.81;4971494;28;20031;-85
2023/01/03 07:06:42;;;;;;;;;;;;;;;19.43;34.20;99782.91;4970348;28;20024;-76
2023/01/03 07:09:07;;;;;;;;;;;;;;;19.65;40.04;99789.59;4954737;28;19918;-79
2023/01/03 07:11:32;;;;;;;;;;;;;;;19.94;41.87;99779.78;4976059;28;19961;-75
2023/01/03 07:13:58;;;;;;;;;;;;;;;20.11;39.54;99776.28;4974907;28;19918;-79
2023/01/03 07:16:24;;;;;;;;;;;;;;;20.23;36.52;99782.19;4975577;28;20016;-84
2023/01/03 07:18:49;;;;;;;;;;;;;;;20.37;35.11;99789.59;4975460;28;19918;-84
2023/01/03 07:21:14;;;;;;;;;;;;;;;20.51;33.46;99788.19;4976077;28;19918;-81
2023/01/03 07:23:40;;;;;;;;;;;;;;;20.78;32.06;99789.06;4958367;28;20251;-83
2023/01/03 07:26:05;;;;;;;;;;;;;;;21.05;30.83;99790.69;4974194;28;19918;-81
2023/01/03 07:28:30;;;;;;;;;;;;;;;21.29;30.27;99797.91;5051936;28;19939;-83
2023/01/03 07:31:02;;;;;;;;;;;;;;;21.46;29.36;99798.81;5055488;28;19917;-84
2023/01/03 07:33:28;;;;;;;;;;;;;;;21.62;28.42;99792.72;5037741;28;19924;-84
2023/01/03 07:36:00;;;;;;;;;;;;;;;21.72;28.02;99797.88;5022238;28;19917;-80
2023/01/03 07:38:25;;;;;;;;;;;;;;;21.79;28.01;99798.91;5001000;28;19953;-83
2023/01/03 07:40:51;;;;;;;;;;;;;;;21.94;27.51;99795.59;5002721;28;19995;-79
2023/01/03 07:46:03;;;;;;;;;;;;;;;22.18;26.67;99790.28;5020113;28;19923;-80
2023/01/03 07:48:28;;;;;;;;;;;;;;;22.39;26.60;99794.28;5001848;28;20360;-80
2023/01/03 07:50:57;;;;;;;;;;;;;;;22.51;26.32;99795.59;5000525;28;19975;-81
2023/01/03 07:53:22;;;;;;;;;;;;;;;22.77;30.06;99792.75;5054109;28;20333;-80
2023/01/03 07:55:47;;;;;;;;;;;;;;;22.95;29.58;99797.00;5020477;28;19917;-80
2023/01/03 07:58:12;;;;;;;;;;;;;;;23.14;29.77;99789.66;5055154;28;19917;-81
2023/01/03 08:00:38;;;;;;;;;;;;;;;23.33;32.62;99791.06;5056035;28;20007;-81
2023/01/03 08:03:04;;;;;;;;;;;;;;;23.42;30.36;99790.00;5020698;28;19916;-86
2023/01/03 08:05:29;;;;;;;;;;;;;;;23.47;29.13;99788.47;5037568;28;19917;-84
2023/01/03 08:07:54;;;;;;;;;;;;;;;23.52;28.31;99797.78;5037510;28;19924;-75
2023/01/03 08:13:19;;;;;;;;;;;;;;;23.76;27.67;99788.81;5039906;28;19924;-72
2023/01/03 08:15:47;;;;;;;;;;;;;;;23.89;26.68;99785.59;5055115;28;19917;-72
2023/01/03 08:18:12;;;;;;;;;;;;;;;23.97;25.62;99783.69;5037053;28;19917;-73
2023/01/03 08:20:38;;;;;;;;;;;;;;;24.07;25.05;99786.13;5035969;28;19924;-73
2023/01/03 08:23:03;;;;;;;;;;;;;;;24.23;29.88;99794.97;5020607;28;19959;-76
2023/01/03 08:25:29;;;;;;;;;;;;;;;24.36;27.73;99780.00;5020125;28;19916;-75
2023/01/03 08:27:57;;;;;;;;;;;;;;;24.48;26.33;99772.41;5036923;28;19917;-74
2023/01/03 08:30:23;;;;;;;;;;;;;;;24.61;25.25;99774.47;5036556;28;19924;-73
2023/01/03 08:32:48;;;;;;;;;;;;;;;24.69;24.40;99774.38;5036810;28;20299;-73
2023/01/03 08:35:14;;;;;;;;;;;;;;;24.82;23.66;99776.41;5036632;28;19924;-73
2023/01/03 08:37:40;;;;;;;;;;;;;;;24.92;23.17;99779.63;5037053;28;20012;-74
2023/01/03 08:40:06;;;;;;;;;;;;;;;25.03;22.94;99775.66;5036658;28;19974;-74
2023/01/03 08:42:31;;;;;;;;;;;;;;;25.14;22.65;99765.50;5036834;28;19923;-74
2023/01/03 08:45:01;;;;;;;;;;;;;;;25.13;22.66;99770.03;5036809;28;20315;-75
2023/01/03 08:47:27;;;;;;;;;;;;;;;25.23;22.38;99767.06;5019554;28;19968;-73
2023/01/03 08:49:52;;;;;;;;;;;;;;;25.18;22.47;99769.47;5036977;28;19924;-75
2023/01/03 08:52:17;;;;;;;;;;;;;;;25.05;22.48;99757.59;5036674;28;20463;-76
2023/01/03 08:54:43;;;;;;;;;;;;;;;25.20;22.37;99762.91;5036313;28;19923;-74
2023/01/03 08:57:08;;;;;;;;;;;;;;;25.22;22.50;99760.06;5036733;28;19917;-74
2023/01/03 08:59:33;;;;;;;;;;;;;;;25.28;23.51;99767.34;5054182;28;20387;-75
2023/01/03 09:01:59;;;;;;;;;;;;;;;25.17;23.30;99759.78;5054481;28;19917;-73
2023/01/03 09:04:24;;;;;;;;;;;;;;;25.22;22.76;99752.88;5036126;28;20288;-70
2023/01/03 09:06:49;;;;;;;;;;;;;;;25.28;22.48;99751.31;5054292;28;19924;-70
2023/01/03 09:09:15;;;;;;;;;;;;;;;25.37;22.39;99744.84;5035055;28;19917;-71
2023/01/03 09:11:40;;;;;;;;;;;;;;;25.31;22.39;99748.28;5015593;28;19940;-70
2023/01/03 09:14:05;;;;;;;;;;;;;;;25.44;22.37;99744.91;5033171;28;19917;-71
2023/01/03 09:16:31;;;;;;;;;;;;;;;25.56;22.17;99745.25;5033375;28;19928;-72
2023/01/03 09:18:56;;;;;;;;;;;;;;;25.57;22.30;99730.84;5051674;28;19925;-71
2023/01/03 09:21:22;;;;;;;;;;;;;;;25.42;22.05;99738.94;5041499;28;19975;-69
2023/01/03 09:23:47;;;;;;;;;;;;;;;25.59;22.00;99739.53;5016022;28;20015;-70
2023/01/03 09:26:12;;;;;;;;;;;;;;;25.77;21.80;99728.38;5062539;28;19928;-71
2023/01/03 09:28:37;;;;;;;;;;;;;;;25.88;21.60;99727.03;5035717;28;19921;-71
2023/01/03 09:31:03;;;;;;;;;;;;;;;25.89;21.70;99720.69;5035049;28;19975;-70
2023/01/03 09:33:28;;;;;;;;;;;;;;;25.97;21.42;99723.25;5035603;28;19917;-70
2023/01/03 09:35:54;;;;;;;;;;;;;;;26.21;21.13;99721.16;5018451;28;19934;-70
2023/01/03 09:38:19;;;;;;;;;;;;;;;26.30;21.36;99715.47;5053124;28;19917;-71
2023/01/03 09:40:45;;;;;;;;;;;;;;;26.52;20.60;99716.22;5053400;28;20299;-69
2023/01/03 09:43:14;;;;;;;;;;;;;;;27.01;20.52;99709.06;5035857;28;19956;-73
2023/01/03 09:45:42;;;;;;;;;;;;;;;27.71;19.34;99699.94;5053534;28;19966;-70
2023/01/03 09:48:07;;;;;;;;;;;;;;;28.61;18.41;99707.53;5035664;28;19921;-72
2023/01/03 09:50:34;;;;;;;;;;;;;;;29.41;17.89;99699.09;5035528;28;20406;-70
2023/01/03 10:04:03;;;;;;;;;;;;;;;32.52;14.85;99675.88;5053405;28;20394;-71
2023/01/03 10:06:35;;;;;;;;;;;;;;;32.84;14.35;99670.88;5018815;28;19927;-70
2023/01/03 10:09:04;;;;;;;;;;;;;;;33.42;13.77;99671.66;5052941;28;19916;-70
2023/01/03 10:11:47;;;;;;;;;;;;;;;33.34;13.90;99662.06;5034473;28;20155;-70
2023/01/03 10:14:19;;;;;;;;;;;;;;;33.60;13.86;99661.66;5052783;28;20387;-71
2023/01/03 10:16:48;;;;;;;;;;;;;;;33.45;13.56;99659.53;5035621;28;19925;-69
2023/01/03 10:19:40;;;;;;;;;;;;;;;32.73;14.27;99645.50;5034633;28;19917;-70
2023/01/03 10:22:19;;;;;;;;;;;;;;;32.63;14.64;99639.88;5048597;28;19923;-70
2023/01/03 10:24:49;;;;;;;;;;;;;;;32.33;14.85;99635.50;5052660;28;20326;-70
2023/01/03 10:27:14;;;;;;;;;;;;;;;31.66;15.32;99634.00;5033486;28;20463;-70
2023/01/03 10:29:40;;;;;;;;;;;;;;;30.33;16.26;99633.94;5051469;28;20003;-69
2023/01/03 10:32:24;;;;;;;;;;;;;;;29.48;17.16;99632.66;5051641;28;19916;-68
2023/01/03 10:35:18;;;;;;;;;;;;;;;28.91;17.71;99635.28;5052413;28;19994;-70
2023/01/03 10:37:43;;;;;;;;;;;;;;;28.45;18.60;99626.38;4952614;29;19918;-69
2023/01/03 10:40:09;;;;;;;;;;;;;;;27.77;19.23;99621.34;4935894;29;20302;-68
2023/01/03 10:42:34;;;;;;;;;;;;;;;27.05;19.85;99618.38;4952552;28;19930;-68
2023/01/03 10:45:04;;;;;;;;;;;;;;;26.70;20.35;99611.25;4942218;29;19918;-70
2023/01/03 10:47:29;;;;;;;;;;;;;;;26.48;20.91;99615.06;4942625;29;19958;-70
2023/01/03 10:49:59;;;;;;;;;;;;;;;26.12;21.23;99619.59;4958623;28;20327;-69
2023/01/03 10:52:24;;;;;;;;;;;;;;;25.72;21.71;99613.16;4926731;29;19965;-69
2023/01/03 10:54:53;;;;;;;;;;;;;;;25.21;22.11;99606.13;4942316;28;20355;-69
2023/01/03 10:57:38;;;;;;;;;;;;;;;24.78;22.69;99606.06;4942737;29;19969;-69
2023/01/03 11:00:19;;;;;;;;;;;;;;;24.23;23.38;99605.56;4926576;29;20294;-70
2023/01/03 11:02:45;;;;;;;;;;;;;;;23.84;23.81;99608.31;4942757;28;19919;-69
2023/01/03 11:05:15;;;;;;;;;;;;;;;23.44;24.43;99605.00;4942571;29;19925;-71
2023/01/03 11:07:43;;;;;;;;;;;;;;;23.18;24.95;99600.00;4958756;29;19918;-69
2023/01/03 11:10:15;;;;;;;;;;;;;;;23.08;25.17;99597.59;4942517;29;20041;-70
2023/01/03 11:12:41;;;;;;;;;;;;;;;22.98;25.28;99593.47;4958389;29;20329;-70
2023/01/03 11:15:15;;;;;;;;;;;;;;;22.87;25.44;99589.41;5029157;28;19917;-69
2023/01/03 11:17:57;;;;;;;;;;;;;;;22.84;25.91;99592.41;5038631;28;19925;-69
2023/01/03 11:20:42;;;;;;;;;;;;;;;22.78;25.96;99585.94;5037377;28;19917;-69
2023/01/03 11:23:11;;;;;;;;;;;;;;;22.57;26.43;99587.41;5038067;28;19921;-69
2023/01/03 11:25:38;;;;;;;;;;;;;;;22.49;26.67;99583.97;5037392;28;19932;-70
2023/01/03 11:28:22;;;;;;;;;;;;;;;22.51;26.68;99587.25;5037452;28;19923;-69
2023/01/03 11:30:50;;;;;;;;;;;;;;;22.38;26.77;99574.53;5038451;28;19921;-70
2023/01/03 11:33:15;;;;;;;;;;;;;;;22.35;27.10;99573.03;5038686;28;19917;-69
2023/01/03 11:35:56;;;;;;;;;;;;;;;22.27;27.33;99573.03;5038446;28;19925;-69
2023/01/03 11:38:30;;;;;;;;;;;;;;;22.21;27.30;99574.53;5038300;28;19917;-70
2023/01/03 11:41:01;;;;;;;;;;;;;;;22.06;27.43;99560.31;5058300;28;20398;-68
2023/01/03 11:43:35;;;;;;;;;;;;;;;22.04;27.55;99554.34;5058509;28;20062;-70
2023/01/03 11:46:19;;;;;;;;;;;;;;;22.02;28.05;99557.16;5058488;28;20303;-69
2023/01/03 11:48:53;;;;;;;;;;;;;;;21.80;28.58;99552.59;5058499;28;20303;-70
2023/01/03 11:51:18;;;;;;;;;;;;;;;21.71;28.71;99546.44;5058935;28;19989;-70
2023/01/03 11:53:44;;;;;;;;;;;;;;;21.59;28.81;99547.81;5058407;28;20439;-69
2023/01/03 11:56:32;;;;;;;;;;;;;;;21.46;29.24;99546.47;5054290;28;19921;-69
2023/01/03 11:58:57;;;;;;;;;;;;;;;21.39;29.38;99552.63;4955030;29;20074;-70
2023/01/03 12:01:34;;;;;;;;;;;;;;;21.27;29.33;99546.81;4954996;29;19978;-69
2023/01/03 12:04:02;;;;;;;;;;;;;;;21.18;29.47;99543.31;4955235;29;20043;-71
2023/01/03 12:06:33;;;;;;;;;;;;;;;21.00;30.05;99540.00;4955023;29;19918;-70
2023/01/03 12:08:58;;;;;;;;;;;;;;;20.92;30.20;99538.16;4922884;29;19930;-70
2023/01/03 12:11:28;;;;;;;;;;;;;;;20.74;30.66;99533.00;4938820;29;19918;-68
2023/01/03 12:14:09;;;;;;;;;;;;;;;20.61;30.88;99536.09;4939029;29;19969;-70
2023/01/03 12:16:34;;;;;;;;;;;;;;;20.46;31.08;99527.94;4922967;29;19925;-70
2023/01/03 12:19:18;;;;;;;;;;;;;;;20.39;31.36;99530.41;4954441;29;19918;-69
2023/01/03 12:21:44;;;;;;;;;;;;;;;20.18;31.81;99525.53;4954697;29;19923;-69
2023/01/03 12:24:10;;;;;;;;;;;;;;;20.11;31.94;99523.69;4922716;29;20329;-70
2023/01/03 12:26:35;;;;;;;;;;;;;;;20.01;32.18;99524.63;4938273;29;19919;-68
2023/01/03 12:29:04;;;;;;;;;;;;;;;20.02;32.24;99522.78;4954566;29;19934;-69
2023/01/03 12:31:42;;;;;;;;;;;;;;;19.93;32.42;99519.28;4938138;29;19929;-68
2023/01/03 12:34:12;;;;;;;;;;;;;;;19.78;32.77;99518.22;4954424;29;19923;-71
2023/01/03 12:36:42;;;;;;;;;;;;;;;19.69;32.86;99520.78;5017468;28;20534;-70
2023/01/03 12:39:20;;;;;;;;;;;;;;;19.56;33.18;99519.53;5016874;28;20016;-69
2023/01/03 12:41:55;;;;;;;;;;;;;;;19.41;33.43;99512.16;5016719;28;19925;-70
2023/01/03 12:44:23;;;;;;;;;;;;;;;19.23;33.95;99519.31;5034455;28;19930;-70
2023/01/03 12:46:49;;;;;;;;;;;;;;;19.13;34.19;99516.75;5034387;28;19921;-71
2023/01/03 12:49:29;;;;;;;;;;;;;;;19.00;34.54;99516.31;5034217;28;20051;-69
2023/01/03 12:51:55;;;;;;;;;;;;;;;18.90;34.68;99513.75;5033417;28;20358;-68
2023/01/03 12:54:32;;;;;;;;;;;;;;;18.83;34.86;99515.31;5034569;28;19921;-67
2023/01/03 12:57:00;;;;;;;;;;;;;;;18.75;35.10;99514.25;5034287;28;20403;-70
2023/01/03 12:59:28;;;;;;;;;;;;;;;18.67;35.44;99523.91;5034155;28;19921;-68
2023/01/03 13:02:05;;;;;;;;;;;;;;;18.56;35.66;99532.88;5032745;28;20316;-70
2023/01/03 13:04:31;;;;;;;;;;;;;;;18.47;35.94;99529.34;5034158;28;20289;-69
2023/01/03 13:07:15;;;;;;;;;;;;;;;18.39;36.24;99532.72;5016084;28;19917;-69
2023/01/03 13:09:44;;;;;;;;;;;;;;;18.29;36.52;99534.56;5033919;28;19917;-68
2023/01/03 13:12:14;;;;;;;;;;;;;;;18.18;36.74;99525.03;5016147;28;19956;-70
2023/01/03 13:14:54;;;;;;;;;;;;;;;18.08;37.04;99526.91;5016641;28;20369;-70
2023/01/03 13:17:20;;;;;;;;;;;;;;;18.00;37.19;99530.25;5032547;28;20007;-70
2023/01/03 13:19:56;;;;;;;;;;;;;;;17.93;37.43;99533.63;5015916;28;19924;-70
2023/01/03 13:22:34;;;;;;;;;;;;;;;17.83;37.57;99539.75;5016190;28;19917;-71
2023/01/03 13:25:18;;;;;;;;;;;;;;;17.79;37.67;99537.53;5034074;28;19928;-69
2023/01/03 13:27:52;;;;;;;;;;;;;;;17.70;37.88;99532.13;5016267;28;19917;-69
2023/01/03 13:30:23;;;;;;;;;;;;;;;17.66;38.04;99529.94;5016150;28;19921;-70
2023/01/03 13:32:50;;;;;;;;;;;;;;;17.59;38.48;99523.56;5033548;28;19925;-70
2023/01/03 13:35:15;;;;;;;;;;;;;;;17.58;38.46;99535.09;5015926;28;19917;-71
2023/01/03 13:37:43;;;;;;;;;;;;;;;17.54;38.41;99534.56;5033252;28;19967;-69
2023/01/03 13:40:09;;;;;;;;;;;;;;;17.47;38.50;99529.03;5033619;28;19975;-70
2023/01/03 13:42:35;;;;;;;;;;;;;;;17.41;38.90;99532.22;5033683;28;19917;-70
2023/01/03 13:45:09;;;;;;;;;;;;;;;17.33;38.99;99525.00;5015775;28;20281;-69
2023/01/03 13:47:39;;;;;;;;;;;;;;;17.27;39.31;99540.56;5033295;28;20411;-70
2023/01/03 13:50:16;;;;;;;;;;;;;;;17.17;39.46;99527.38;5021059;28;19924;-71
2023/01/03 13:52:56;;;;;;;;;;;;;;;17.29;50.84;99530.72;5034468;28;19924;-69
2023/01/03 13:55:37;;;;;;;;;;;;;;;17.27;50.04;99530.84;5052735;28;19917;-69
2023/01/03 13:58:23;;;;;;;;;;;;;;;17.27;50.02;99530.03;5071200;28;19916;-70